Estación de Coihueco

Ultimos registro cada 15 minutos 89
Estación Fecha / Hora Temperatura Humedad Lluvia Velocidad Dirección Radiación Presion
89 Coihueco 09-05-2026 22:00 5,9 94,1 0 0,5 257 0,6 992,3
88 Coihueco 09-05-2026 21:45 5,7 94,8 0 0 257 0,6 992,4
87 Coihueco 09-05-2026 21:30 7,4 91,2 0 0,5 257 0,6 992,4
86 Coihueco 09-05-2026 21:15 7,8 91,6 0 0,5 257 0,6 992,4
85 Coihueco 09-05-2026 21:00 8 90,2 0 1 265 0,6 992,4
84 Coihueco 09-05-2026 20:45 8,3 90,7 0 0,5 251 0,6 992,3
83 Coihueco 09-05-2026 20:30 8,8 89,8 0 0,5 226 0,6 992,3
82 Coihueco 09-05-2026 20:15 10 87,9 0 0 220 0,6 992,3
81 Coihueco 09-05-2026 20:00 8,2 88,9 0 0,5 216 0,6 992,3
80 Coihueco 09-05-2026 19:45 8,8 86 0 1,5 253 0,6 992,3
79 Coihueco 09-05-2026 19:30 9,7 82,3 0 0,5 272 0,6 992,2
78 Coihueco 09-05-2026 19:15 10,7 82 0 0,5 284 0,6 992,1
77 Coihueco 09-05-2026 19:00 11,8 77,8 0 1 326 0,6 992
76 Coihueco 09-05-2026 18:45 11,7 78,5 0 0 257 0,6 992,1
75 Coihueco 09-05-2026 18:30 12,2 74,4 0 1 257 0,6 991,9
74 Coihueco 09-05-2026 18:15 12,9 71,5 0 2 237 0,6 991,8
73 Coihueco 09-05-2026 18:00 14,2 67,5 0 2 216 1,9 991,9
72 Coihueco 09-05-2026 17:45 14,3 67,4 0 2 243 8,1 991,7
71 Coihueco 09-05-2026 17:30 15,2 65,4 0 2,5 230 13,1 991,8
70 Coihueco 09-05-2026 17:15 16,2 63 0 3 239 56,9 991,5
69 Coihueco 09-05-2026 17:00 17 60,2 0 2,5 227 100,6 991,7
68 Coihueco 09-05-2026 16:45 17,8 59,4 0 2,5 219 130,6 991,6
67 Coihueco 09-05-2026 16:30 18,2 56,9 0 3 227 25,6 991,5
66 Coihueco 09-05-2026 16:15 18,3 55,4 0 3 237 261,9 991,6
65 Coihueco 09-05-2026 16:00 18,7 53,3 0 2,5 232 301,9 991,7
64 Coihueco 09-05-2026 15:45 19 53,9 0 2,5 227 336,9 991,8
63 Coihueco 09-05-2026 15:30 18,7 53,1 0 2 225 374,4 991,8
62 Coihueco 09-05-2026 15:15 18,5 50,6 0 3 219 405,6 991,9
61 Coihueco 09-05-2026 15:00 18,2 52 0 4 213 434,4 992
60 Coihueco 09-05-2026 14:45 18,2 53,3 0 3 209 463,1 992,2
59 Coihueco 09-05-2026 14:30 17,8 55,8 0 3,5 218 486,9 992,6
58 Coihueco 09-05-2026 14:15 17,5 53,9 0 3 222 506,9 992,6
57 Coihueco 09-05-2026 14:00 16,9 56,1 0 4,5 226 524,4 992,5
56 Coihueco 09-05-2026 13:45 16,6 56,6 0 3,5 234 541,9 992,4
55 Coihueco 09-05-2026 13:30 16,1 60,1 0 4,5 230 550,6 992,9
54 Coihueco 09-05-2026 13:15 15,8 62,9 0 3,5 244 558,1 993
53 Coihueco 09-05-2026 13:00 15,2 63,1 0 3,5 230 563,1 993,2
52 Coihueco 09-05-2026 12:45 14,9 62,3 0 4,5 223 566,9 993,3
51 Coihueco 09-05-2026 12:30 15,3 64,4 0 4 233 563,1 993,4
50 Coihueco 09-05-2026 12:15 14,9 68,7 0 5 223 559,4 993,5
49 Coihueco 09-05-2026 12:00 14,2 67,2 0 3,5 236 550,6 993,8
48 Coihueco 09-05-2026 11:45 13,6 67,9 0 3 258 533,1 993,8
47 Coihueco 09-05-2026 11:30 13,1 69 0 2,5 265 519,4 994,1
46 Coihueco 09-05-2026 11:15 12,8 74,6 0 2 264 498,1 994,3
45 Coihueco 09-05-2026 11:00 12,3 75,5 0 2,5 257 474,4 994,3
44 Coihueco 09-05-2026 10:45 12,1 76,1 0 2,5 243 451,9 994,5
43 Coihueco 09-05-2026 10:30 11,6 78,8 0 2,5 237 423,1 994,5
42 Coihueco 09-05-2026 10:15 10,9 79,3 0 2 263 393,1 994,7
41 Coihueco 09-05-2026 10:00 10,8 80,1 0 2,5 239 361,9 994,6
40 Coihueco 09-05-2026 09:45 9 84,7 0 2 254 325,6 994,9
39 Coihueco 09-05-2026 09:30 9,5 76,5 0 1,5 236 294,4 994,9
38 Coihueco 09-05-2026 09:15 8,1 81,3 0 1,5 227 260,6 995,1
37 Coihueco 09-05-2026 09:00 6,9 86 0 1 246 230,6 995,3
36 Coihueco 09-05-2026 08:45 5,2 87,3 0 0,5 241 199,4 995,3
35 Coihueco 09-05-2026 08:30 5,7 80,9 0 0,5 183 166,9 995,2
34 Coihueco 09-05-2026 08:15 3,6 88,1 0 0,5 185 113,1 995,2
33 Coihueco 09-05-2026 08:00 2,9 89,2 0 0,5 185 18,1 995,2
32 Coihueco 09-05-2026 07:45 2,5 89,6 0 1 183 8,1 995,4
31 Coihueco 09-05-2026 07:30 3,7 82,6 0 1,5 168 1,9 995,3
30 Coihueco 09-05-2026 07:15 3,7 84,4 0 1,5 185 0,6 995
29 Coihueco 09-05-2026 07:00 3 88,5 0 1,5 188 0,6 995,2
28 Coihueco 09-05-2026 06:45 3,8 84,6 0 1 177 0,6 995,2
27 Coihueco 09-05-2026 06:30 2,9 91,1 0 1 195 0,6 995,3
26 Coihueco 09-05-2026 06:15 2 96,5 0 0,5 178 0,6 995,6
25 Coihueco 09-05-2026 06:00 1,3 98,4 0 0 180 0,6 995,8
24 Coihueco 09-05-2026 05:45 1,7 98,5 0 0,5 180 0,6 995,9
23 Coihueco 09-05-2026 05:30 1,6 97,6 0 0,5 180 0,6 995,8
22 Coihueco 09-05-2026 05:15 1,9 97,5 0 0 180 0,6 995,9
21 Coihueco 09-05-2026 05:00 2,2 97,3 0 0,5 180 0,6 995,9
20 Coihueco 09-05-2026 04:45 2,1 98,8 0 0,5 170 0,6 995,8
19 Coihueco 09-05-2026 04:30 2 100 0 0,5 192 0,6 996
18 Coihueco 09-05-2026 04:15 1,6 100 0 0,5 220 0,6 995,7
17 Coihueco 09-05-2026 04:00 1,2 100 0 0,5 268 0,6 995,9
16 Coihueco 09-05-2026 03:45 0,9 100 0 0 278 0,6 996,1
15 Coihueco 09-05-2026 03:30 1,3 100 0 0 278 0,6 996,2
14 Coihueco 09-05-2026 03:15 1,4 100 0 0,5 278 0,6 996,3
13 Coihueco 09-05-2026 03:00 1,2 100 0 1 272 0,6 996,5
12 Coihueco 09-05-2026 02:45 1,7 100 0 0 129 0,6 996,6
11 Coihueco 09-05-2026 02:30 1,6 100 0 0 112 0,6 996,7
10 Coihueco 09-05-2026 02:15 2,6 100 0 0 247 0,6 996,8
9 Coihueco 09-05-2026 02:00 2 100 0 0 247 0,6 997
8 Coihueco 09-05-2026 01:45 3,4 100 0 0 247 0,6 997
7 Coihueco 09-05-2026 01:30 2,6 100 0 0,5 233 0,6 997
6 Coihueco 09-05-2026 01:15 3,5 100 0 0 114 0,6 997,1
5 Coihueco 09-05-2026 01:00 2,9 100 0 0 112 0,6 996,8
4 Coihueco 09-05-2026 00:45 4,1 100 0 0 112 0,6 996,8
3 Coihueco 09-05-2026 00:30 4,4 100 0 0 143 0,6 996,9
2 Coihueco 09-05-2026 00:15 4,6 100 0 0 230 0,6 996,8
1 Coihueco 09-05-2026 00:00 4,4 100 0 0,5 218 0,6 996,8